sensor_id;sensor_type;location;lat;lon;timestamp;P1;durP1;ratioP1;P2;durP2;ratioP2
69754;SDS011;57023;52.218;5.158;2023-06-24T00:00:47;9.02;;;6.25;;
69754;SDS011;57023;52.218;5.158;2023-06-24T00:03:12;9.38;;;6.15;;
69754;SDS011;57023;52.218;5.158;2023-06-24T00:05:42;8.00;;;6.22;;
69754;SDS011;57023;52.218;5.158;2023-06-24T00:08:08;9.10;;;6.38;;
69754;SDS011;57023;52.218;5.158;2023-06-24T00:10:33;11.18;;;6.47;;
69754;SDS011;57023;52.218;5.158;2023-06-24T00:12:59;9.27;;;6.72;;
69754;SDS011;57023;52.218;5.158;2023-06-24T00:15:27;9.38;;;6.55;;
69754;SDS011;57023;52.218;5.158;2023-06-24T00:17:52;9.43;;;6.47;;
69754;SDS011;57023;52.218;5.158;2023-06-24T00:20:18;9.38;;;6.25;;
69754;SDS011;57023;52.218;5.158;2023-06-24T00:22:45;8.15;;;6.45;;
69754;SDS011;57023;52.218;5.158;2023-06-24T00:25:14;9.60;;;6.55;;
69754;SDS011;57023;52.218;5.158;2023-06-24T00:27:40;10.77;;;6.85;;
69754;SDS011;57023;52.218;5.158;2023-06-24T00:30:07;11.82;;;7.47;;
69754;SDS011;57023;52.218;5.158;2023-06-24T00:32:32;10.18;;;7.20;;
69754;SDS011;57023;52.218;5.158;2023-06-24T00:34:58;9.85;;;7.35;;
69754;SDS011;57023;52.218;5.158;2023-06-24T00:37:25;10.60;;;7.45;;
69754;SDS011;57023;52.218;5.158;2023-06-24T00:39:50;12.50;;;7.47;;
69754;SDS011;57023;52.218;5.158;2023-06-24T00:42:15;9.88;;;7.38;;
69754;SDS011;57023;52.218;5.158;2023-06-24T00:44:41;9.52;;;7.30;;
69754;SDS011;57023;52.218;5.158;2023-06-24T00:47:06;10.43;;;7.78;;
69754;SDS011;57023;52.218;5.158;2023-06-24T00:49:33;9.90;;;7.20;;
69754;SDS011;57023;52.218;5.158;2023-06-24T00:51:58;10.93;;;7.05;;
69754;SDS011;57023;52.218;5.158;2023-06-24T00:54:26;10.13;;;7.30;;
69754;SDS011;57023;52.218;5.158;2023-06-24T00:56:55;10.20;;;7.00;;
69754;SDS011;57023;52.218;5.158;2023-06-24T00:59:25;10.60;;;7.30;;
69754;SDS011;57023;52.218;5.158;2023-06-24T01:01:54;12.50;;;7.57;;
69754;SDS011;57023;52.218;5.158;2023-06-24T01:04:19;12.18;;;7.00;;
69754;SDS011;57023;52.218;5.158;2023-06-24T01:06:44;10.07;;;6.80;;
69754;SDS011;57023;52.218;5.158;2023-06-24T01:09:10;10.45;;;6.90;;
69754;SDS011;57023;52.218;5.158;2023-06-24T01:11:36;11.20;;;7.20;;
69754;SDS011;57023;52.218;5.158;2023-06-24T01:14:01;10.88;;;6.57;;
69754;SDS011;57023;52.218;5.158;2023-06-24T01:22:15;10.63;;;6.30;;
69754;SDS011;57023;52.218;5.158;2023-06-24T01:32:59;9.82;;;6.28;;
69754;SDS011;57023;52.218;5.158;2023-06-24T01:35:31;9.13;;;6.28;;
69754;SDS011;57023;52.218;5.158;2023-06-24T01:37:59;8.48;;;5.70;;
69754;SDS011;57023;52.218;5.158;2023-06-24T01:40:27;8.63;;;6.05;;
69754;SDS011;57023;52.218;5.158;2023-06-24T01:43:00;8.10;;;5.80;;
69754;SDS011;57023;52.218;5.158;2023-06-24T01:45:26;9.43;;;6.22;;
69754;SDS011;57023;52.218;5.158;2023-06-24T01:48:00;8.27;;;5.43;;
69754;SDS011;57023;52.218;5.158;2023-06-24T01:50:27;7.70;;;5.47;;
69754;SDS011;57023;52.218;5.158;2023-06-24T01:52:56;9.07;;;5.63;;
69754;SDS011;57023;52.218;5.158;2023-06-24T01:55:23;9.77;;;5.90;;
69754;SDS011;57023;52.218;5.158;2023-06-24T01:57:50;7.95;;;5.28;;
69754;SDS011;57023;52.218;5.158;2023-06-24T02:00:15;9.25;;;5.57;;
69754;SDS011;57023;52.218;5.158;2023-06-24T02:02:42;9.02;;;5.78;;
69754;SDS011;57023;52.218;5.158;2023-06-24T02:05:08;7.72;;;5.38;;
69754;SDS011;57023;52.218;5.158;2023-06-24T02:07:34;7.82;;;5.20;;
69754;SDS011;57023;52.218;5.158;2023-06-24T02:09:59;8.40;;;5.65;;
69754;SDS011;57023;52.218;5.158;2023-06-24T02:12:25;8.02;;;5.50;;
69754;SDS011;57023;52.218;5.158;2023-06-24T02:14:52;7.28;;;4.97;;
69754;SDS011;57023;52.218;5.158;2023-06-24T02:17:19;8.50;;;5.05;;
69754;SDS011;57023;52.218;5.158;2023-06-24T02:19:44;8.32;;;5.30;;
69754;SDS011;57023;52.218;5.158;2023-06-24T02:22:11;8.98;;;4.80;;
69754;SDS011;57023;52.218;5.158;2023-06-24T02:24:37;8.37;;;5.40;;
69754;SDS011;57023;52.218;5.158;2023-06-24T02:27:04;8.30;;;5.20;;
69754;SDS011;57023;52.218;5.158;2023-06-24T02:29:30;7.88;;;5.45;;
69754;SDS011;57023;52.218;5.158;2023-06-24T02:31:56;7.00;;;5.00;;
69754;SDS011;57023;52.218;5.158;2023-06-24T02:34:22;8.75;;;5.50;;
69754;SDS011;57023;52.218;5.158;2023-06-24T02:36:48;7.90;;;5.00;;
69754;SDS011;57023;52.218;5.158;2023-06-24T02:39:13;7.25;;;4.93;;
69754;SDS011;57023;52.218;5.158;2023-06-24T02:41:39;8.10;;;5.30;;
69754;SDS011;57023;52.218;5.158;2023-06-24T02:44:04;9.82;;;5.63;;
69754;SDS011;57023;52.218;5.158;2023-06-24T02:46:29;9.85;;;5.70;;
69754;SDS011;57023;52.218;5.158;2023-06-24T02:48:56;7.33;;;5.00;;
69754;SDS011;57023;52.218;5.158;2023-06-24T02:51:22;7.05;;;5.10;;
69754;SDS011;57023;52.218;5.158;2023-06-24T02:53:47;7.68;;;5.30;;
69754;SDS011;57023;52.218;5.158;2023-06-24T02:56:13;8.95;;;5.40;;
69754;SDS011;57023;52.218;5.158;2023-06-24T02:58:38;7.30;;;5.07;;
69754;SDS011;57023;52.218;5.158;2023-06-24T03:01:04;8.52;;;5.30;;
69754;SDS011;57023;52.218;5.158;2023-06-24T03:03:32;7.65;;;5.10;;
69754;SDS011;57023;52.218;5.158;2023-06-24T03:05:57;7.40;;;4.95;;
69754;SDS011;57023;52.218;5.158;2023-06-24T03:08:24;6.78;;;4.75;;
69754;SDS011;57023;52.218;5.158;2023-06-24T03:10:59;7.35;;;4.88;;
69754;SDS011;57023;52.218;5.158;2023-06-24T03:13:25;7.25;;;4.82;;
69754;SDS011;57023;52.218;5.158;2023-06-24T03:15:50;7.10;;;4.90;;
69754;SDS011;57023;52.218;5.158;2023-06-24T03:18:16;6.97;;;4.88;;
69754;SDS011;57023;52.218;5.158;2023-06-24T03:20:43;7.78;;;5.28;;
69754;SDS011;57023;52.218;5.158;2023-06-24T03:23:08;7.30;;;4.88;;
69754;SDS011;57023;52.218;5.158;2023-06-24T03:25:34;6.82;;;4.93;;
69754;SDS011;57023;52.218;5.158;2023-06-24T03:28:00;7.65;;;4.90;;
69754;SDS011;57023;52.218;5.158;2023-06-24T03:30:26;6.53;;;4.40;;
69754;SDS011;57023;52.218;5.158;2023-06-24T03:32:52;7.38;;;4.63;;
69754;SDS011;57023;52.218;5.158;2023-06-24T03:35:18;8.68;;;4.90;;
69754;SDS011;57023;52.218;5.158;2023-06-24T03:37:43;7.47;;;4.65;;
69754;SDS011;57023;52.218;5.158;2023-06-24T03:40:09;7.60;;;4.97;;
69754;SDS011;57023;52.218;5.158;2023-06-24T03:42:34;7.95;;;4.80;;
69754;SDS011;57023;52.218;5.158;2023-06-24T03:44:59;8.20;;;4.90;;
69754;SDS011;57023;52.218;5.158;2023-06-24T03:47:25;7.35;;;5.00;;
69754;SDS011;57023;52.218;5.158;2023-06-24T03:49:50;9.02;;;5.30;;
69754;SDS011;57023;52.218;5.158;2023-06-24T03:52:16;8.07;;;5.18;;
69754;SDS011;57023;52.218;5.158;2023-06-24T03:54:42;7.40;;;4.97;;
69754;SDS011;57023;52.218;5.158;2023-06-24T03:57:07;8.20;;;4.68;;
69754;SDS011;57023;52.218;5.158;2023-06-24T03:59:33;7.28;;;4.82;;
69754;SDS011;57023;52.218;5.158;2023-06-24T04:01:59;8.38;;;5.20;;
69754;SDS011;57023;52.218;5.158;2023-06-24T04:04:24;8.40;;;5.47;;
69754;SDS011;57023;52.218;5.158;2023-06-24T04:06:50;7.90;;;5.50;;
69754;SDS011;57023;52.218;5.158;2023-06-24T04:09:15;8.23;;;5.82;;
69754;SDS011;57023;52.218;5.158;2023-06-24T04:11:40;8.07;;;5.45;;
69754;SDS011;57023;52.218;5.158;2023-06-24T04:14:06;8.13;;;5.57;;
69754;SDS011;57023;52.218;5.158;2023-06-24T04:16:32;10.00;;;6.20;;
69754;SDS011;57023;52.218;5.158;2023-06-24T04:18:57;8.38;;;6.10;;
69754;SDS011;57023;52.218;5.158;2023-06-24T04:21:22;9.82;;;6.18;;
69754;SDS011;57023;52.218;5.158;2023-06-24T04:23:48;11.38;;;6.80;;
69754;SDS011;57023;52.218;5.158;2023-06-24T04:26:13;9.60;;;6.55;;
69754;SDS011;57023;52.218;5.158;2023-06-24T04:28:38;11.13;;;7.38;;
69754;SDS011;57023;52.218;5.158;2023-06-24T04:31:05;12.00;;;7.30;;
69754;SDS011;57023;52.218;5.158;2023-06-24T04:33:30;11.73;;;7.30;;
69754;SDS011;57023;52.218;5.158;2023-06-24T04:35:55;12.55;;;7.45;;
69754;SDS011;57023;52.218;5.158;2023-06-24T04:38:21;10.95;;;7.68;;
69754;SDS011;57023;52.218;5.158;2023-06-24T04:40:46;12.02;;;7.47;;
69754;SDS011;57023;52.218;5.158;2023-06-24T04:43:12;11.23;;;7.72;;
69754;SDS011;57023;52.218;5.158;2023-06-24T04:45:37;11.88;;;7.13;;
69754;SDS011;57023;52.218;5.158;2023-06-24T04:48:02;12.35;;;7.43;;
69754;SDS011;57023;52.218;5.158;2023-06-24T04:50:28;9.95;;;6.90;;
69754;SDS011;57023;52.218;5.158;2023-06-24T04:52:53;10.65;;;7.20;;
69754;SDS011;57023;52.218;5.158;2023-06-24T04:55:20;11.15;;;7.70;;
69754;SDS011;57023;52.218;5.158;2023-06-24T04:57:46;13.93;;;7.30;;
69754;SDS011;57023;52.218;5.158;2023-06-24T05:00:12;10.68;;;6.90;;
69754;SDS011;57023;52.218;5.158;2023-06-24T05:02:37;11.00;;;7.15;;
69754;SDS011;57023;52.218;5.158;2023-06-24T05:05:03;11.13;;;7.20;;
69754;SDS011;57023;52.218;5.158;2023-06-24T05:07:28;9.77;;;5.85;;
69754;SDS011;57023;52.218;5.158;2023-06-24T05:09:54;9.95;;;6.70;;
69754;SDS011;57023;52.218;5.158;2023-06-24T05:12:20;10.75;;;6.93;;
69754;SDS011;57023;52.218;5.158;2023-06-24T05:14:49;9.55;;;6.70;;
69754;SDS011;57023;52.218;5.158;2023-06-24T05:17:14;11.75;;;7.00;;
69754;SDS011;57023;52.218;5.158;2023-06-24T05:19:40;9.88;;;6.95;;
69754;SDS011;57023;52.218;5.158;2023-06-24T05:22:05;9.98;;;6.05;;
69754;SDS011;57023;52.218;5.158;2023-06-24T05:24:31;9.10;;;6.07;;
69754;SDS011;57023;52.218;5.158;2023-06-24T05:26:56;9.65;;;6.18;;
69754;SDS011;57023;52.218;5.158;2023-06-24T05:29:22;10.57;;;5.53;;
69754;SDS011;57023;52.218;5.158;2023-06-24T05:31:47;9.50;;;5.90;;
69754;SDS011;57023;52.218;5.158;2023-06-24T05:34:13;9.10;;;6.25;;
69754;SDS011;57023;52.218;5.158;2023-06-24T05:36:38;10.27;;;6.38;;
69754;SDS011;57023;52.218;5.158;2023-06-24T05:39:03;10.68;;;5.90;;
69754;SDS011;57023;52.218;5.158;2023-06-24T05:41:30;8.75;;;6.28;;
69754;SDS011;57023;52.218;5.158;2023-06-24T05:44:28;8.23;;;4.43;;
69754;SDS011;57023;52.218;5.158;2023-06-24T05:46:47;10.30;;;5.90;;
69754;SDS011;57023;52.218;5.158;2023-06-24T05:49:13;9.07;;;5.88;;
69754;SDS011;57023;52.218;5.158;2023-06-24T05:51:38;10.98;;;6.10;;
69754;SDS011;57023;52.218;5.158;2023-06-24T05:54:03;10.80;;;6.15;;
69754;SDS011;57023;52.218;5.158;2023-06-24T05:56:29;9.95;;;6.00;;
69754;SDS011;57023;52.218;5.158;2023-06-24T05:58:54;8.48;;;6.07;;
69754;SDS011;57023;52.218;5.158;2023-06-24T06:01:20;10.55;;;6.05;;
69754;SDS011;57023;52.218;5.158;2023-06-24T06:03:45;13.25;;;6.53;;
69754;SDS011;57023;52.218;5.158;2023-06-24T06:06:10;8.50;;;5.90;;
69754;SDS011;57023;52.218;5.158;2023-06-24T06:08:36;11.07;;;5.95;;
69754;SDS011;57023;52.218;5.158;2023-06-24T06:11:01;8.90;;;5.78;;
69754;SDS011;57023;52.218;5.158;2023-06-24T06:13:27;8.63;;;5.70;;
69754;SDS011;57023;52.218;5.158;2023-06-24T06:15:53;9.38;;;5.78;;
69754;SDS011;57023;52.218;5.158;2023-06-24T06:18:18;9.25;;;5.75;;
69754;SDS011;57023;52.218;5.158;2023-06-24T06:20:44;10.48;;;5.78;;
69754;SDS011;57023;52.218;5.158;2023-06-24T06:23:09;8.68;;;5.40;;
69754;SDS011;57023;52.218;5.158;2023-06-24T06:25:35;7.82;;;5.45;;
69754;SDS011;57023;52.218;5.158;2023-06-24T06:28:00;9.60;;;5.70;;
69754;SDS011;57023;52.218;5.158;2023-06-24T06:30:25;8.40;;;5.78;;
69754;SDS011;57023;52.218;5.158;2023-06-24T06:32:51;8.07;;;5.88;;
69754;SDS011;57023;52.218;5.158;2023-06-24T06:35:16;9.88;;;5.85;;
69754;SDS011;57023;52.218;5.158;2023-06-24T06:37:41;11.05;;;6.22;;
69754;SDS011;57023;52.218;5.158;2023-06-24T06:40:07;8.77;;;5.32;;
69754;SDS011;57023;52.218;5.158;2023-06-24T06:42:33;7.88;;;5.40;;
69754;SDS011;57023;52.218;5.158;2023-06-24T06:44:58;8.65;;;5.60;;
69754;SDS011;57023;52.218;5.158;2023-06-24T06:47:23;9.52;;;5.75;;
69754;SDS011;57023;52.218;5.158;2023-06-24T06:49:49;11.45;;;5.65;;
69754;SDS011;57023;52.218;5.158;2023-06-24T06:52:14;8.13;;;5.57;;
69754;SDS011;57023;52.218;5.158;2023-06-24T06:54:39;9.77;;;5.70;;
69754;SDS011;57023;52.218;5.158;2023-06-24T06:57:05;10.57;;;5.38;;
69754;SDS011;57023;52.218;5.158;2023-06-24T06:59:31;9.55;;;5.45;;
69754;SDS011;57023;52.218;5.158;2023-06-24T07:01:56;8.88;;;5.50;;
69754;SDS011;57023;52.218;5.158;2023-06-24T07:04:22;8.40;;;5.20;;
69754;SDS011;57023;52.218;5.158;2023-06-24T07:06:47;9.98;;;4.75;;
69754;SDS011;57023;52.218;5.158;2023-06-24T07:09:12;8.55;;;5.32;;
69754;SDS011;57023;52.218;5.158;2023-06-24T07:11:38;8.65;;;5.65;;
69754;SDS011;57023;52.218;5.158;2023-06-24T07:14:03;9.23;;;5.45;;
69754;SDS011;57023;52.218;5.158;2023-06-24T07:16:28;9.23;;;6.03;;
69754;SDS011;57023;52.218;5.158;2023-06-24T07:18:54;8.82;;;5.82;;
69754;SDS011;57023;52.218;5.158;2023-06-24T07:21:19;8.00;;;5.40;;
69754;SDS011;57023;52.218;5.158;2023-06-24T07:23:45;9.70;;;5.57;;
69754;SDS011;57023;52.218;5.158;2023-06-24T07:26:10;11.02;;;5.60;;
69754;SDS011;57023;52.218;5.158;2023-06-24T07:28:36;9.27;;;5.78;;
69754;SDS011;57023;52.218;5.158;2023-06-24T07:31:01;11.73;;;5.97;;
69754;SDS011;57023;52.218;5.158;2023-06-24T07:33:26;9.60;;;5.47;;
69754;SDS011;57023;52.218;5.158;2023-06-24T07:35:52;7.88;;;4.82;;
69754;SDS011;57023;52.218;5.158;2023-06-24T07:38:17;7.10;;;4.90;;
69754;SDS011;57023;52.218;5.158;2023-06-24T07:40:42;9.17;;;5.57;;
69754;SDS011;57023;52.218;5.158;2023-06-24T07:43:08;9.60;;;5.82;;
69754;SDS011;57023;52.218;5.158;2023-06-24T07:45:33;10.95;;;6.03;;
69754;SDS011;57023;52.218;5.158;2023-06-24T07:47:59;9.57;;;5.82;;
69754;SDS011;57023;52.218;5.158;2023-06-24T07:50:24;9.10;;;6.13;;
69754;SDS011;57023;52.218;5.158;2023-06-24T07:52:49;9.73;;;5.50;;
69754;SDS011;57023;52.218;5.158;2023-06-24T07:55:15;9.88;;;6.07;;
69754;SDS011;57023;52.218;5.158;2023-06-24T07:57:44;7.87;;;5.33;;
69754;SDS011;57023;52.218;5.158;2023-06-24T08:00:10;12.15;;;6.18;;
69754;SDS011;57023;52.218;5.158;2023-06-24T08:02:35;8.57;;;5.80;;
69754;SDS011;57023;52.218;5.158;2023-06-24T08:05:01;9.30;;;5.93;;
69754;SDS011;57023;52.218;5.158;2023-06-24T08:09:53;8.23;;;5.90;;
69754;SDS011;57023;52.218;5.158;2023-06-24T08:12:18;8.07;;;5.83;;
69754;SDS011;57023;52.218;5.158;2023-06-24T08:14:43;8.10;;;5.37;;
69754;SDS011;57023;52.218;5.158;2023-06-24T08:17:09;9.03;;;5.70;;
69754;SDS011;57023;52.218;5.158;2023-06-24T08:19:34;10.13;;;5.40;;
69754;SDS011;57023;52.218;5.158;2023-06-24T08:21:59;9.00;;;5.40;;
69754;SDS011;57023;52.218;5.158;2023-06-24T08:24:25;9.97;;;5.57;;
69754;SDS011;57023;52.218;5.158;2023-06-24T08:26:50;10.43;;;6.20;;
69754;SDS011;57023;52.218;5.158;2023-06-24T08:29:16;7.37;;;5.50;;
69754;SDS011;57023;52.218;5.158;2023-06-24T08:31:41;8.40;;;5.33;;
69754;SDS011;57023;52.218;5.158;2023-06-24T08:34:06;9.60;;;5.90;;
69754;SDS011;57023;52.218;5.158;2023-06-24T08:36:32;9.47;;;5.33;;
69754;SDS011;57023;52.218;5.158;2023-06-24T08:38:57;9.30;;;6.10;;
69754;SDS011;57023;52.218;5.158;2023-06-24T08:41:23;10.17;;;6.10;;
69754;SDS011;57023;52.218;5.158;2023-06-24T08:46:15;7.83;;;5.13;;
69754;SDS011;57023;52.218;5.158;2023-06-24T08:48:41;9.17;;;5.27;;
69754;SDS011;57023;52.218;5.158;2023-06-24T08:53:34;10.82;;;5.72;;
69754;SDS011;57023;52.218;5.158;2023-06-24T08:56:01;10.68;;;6.13;;
69754;SDS011;57023;52.218;5.158;2023-06-24T08:58:26;8.87;;;5.60;;
69754;SDS011;57023;52.218;5.158;2023-06-24T09:00:52;8.23;;;5.90;;
69754;SDS011;57023;52.218;5.158;2023-06-24T09:03:17;7.93;;;5.63;;
69754;SDS011;57023;52.218;5.158;2023-06-24T09:05:43;9.97;;;5.60;;
69754;SDS011;57023;52.218;5.158;2023-06-24T09:08:09;8.93;;;5.63;;
69754;SDS011;57023;52.218;5.158;2023-06-24T09:10:35;8.00;;;5.57;;
69754;SDS011;57023;52.218;5.158;2023-06-24T09:13:02;10.38;;;6.00;;
69754;SDS011;57023;52.218;5.158;2023-06-24T09:15:34;7.95;;;5.53;;
69754;SDS011;57023;52.218;5.158;2023-06-24T09:18:00;8.75;;;5.03;;
69754;SDS011;57023;52.218;5.158;2023-06-24T09:20:28;10.30;;;5.80;;
69754;SDS011;57023;52.218;5.158;2023-06-24T09:22:59;11.57;;;5.90;;
69754;SDS011;57023;52.218;5.158;2023-06-24T09:25:25;9.85;;;5.65;;
69754;SDS011;57023;52.218;5.158;2023-06-24T09:27:51;10.10;;;5.80;;
69754;SDS011;57023;52.218;5.158;2023-06-24T09:30:20;9.35;;;6.15;;
69754;SDS011;57023;52.218;5.158;2023-06-24T09:32:48;10.25;;;6.15;;
69754;SDS011;57023;52.218;5.158;2023-06-24T09:35:14;9.73;;;6.53;;
69754;SDS011;57023;52.218;5.158;2023-06-24T09:37:42;8.88;;;6.03;;
69754;SDS011;57023;52.218;5.158;2023-06-24T09:40:08;9.73;;;6.30;;
69754;SDS011;57023;52.218;5.158;2023-06-24T09:42:35;9.75;;;6.22;;
69754;SDS011;57023;52.218;5.158;2023-06-24T09:45:04;10.23;;;6.63;;
69754;SDS011;57023;52.218;5.158;2023-06-24T09:47:31;9.48;;;6.72;;
69754;SDS011;57023;52.218;5.158;2023-06-24T09:49:56;9.43;;;6.73;;
69754;SDS011;57023;52.218;5.158;2023-06-24T09:52:22;9.83;;;6.17;;
69754;SDS011;57023;52.218;5.158;2023-06-24T09:54:49;8.50;;;6.03;;
69754;SDS011;57023;52.218;5.158;2023-06-24T09:57:16;9.75;;;6.40;;
69754;SDS011;57023;52.218;5.158;2023-06-24T09:59:45;11.15;;;6.70;;
69754;SDS011;57023;52.218;5.158;2023-06-24T10:02:12;10.23;;;6.80;;
69754;SDS011;57023;52.218;5.158;2023-06-24T10:04:39;8.00;;;6.03;;
69754;SDS011;57023;52.218;5.158;2023-06-24T10:07:04;9.63;;;6.27;;
69754;SDS011;57023;52.218;5.158;2023-06-24T10:09:29;11.00;;;6.50;;
69754;SDS011;57023;52.218;5.158;2023-06-24T10:11:55;11.33;;;6.53;;
69754;SDS011;57023;52.218;5.158;2023-06-24T10:14:20;10.57;;;6.37;;
69754;SDS011;57023;52.218;5.158;2023-06-24T10:16:45;9.23;;;6.40;;
69754;SDS011;57023;52.218;5.158;2023-06-24T10:19:13;9.50;;;6.17;;
69754;SDS011;57023;52.218;5.158;2023-06-24T10:21:45;8.40;;;6.43;;
69754;SDS011;57023;52.218;5.158;2023-06-24T10:24:12;8.38;;;7.07;;
69754;SDS011;57023;52.218;5.158;2023-06-24T10:26:39;9.17;;;6.50;;
69754;SDS011;57023;52.218;5.158;2023-06-24T10:37:00;9.55;;;6.75;;
69754;SDS011;57023;52.218;5.158;2023-06-24T10:44:55;11.02;;;7.15;;
69754;SDS011;57023;52.218;5.158;2023-06-24T10:47:24;12.05;;;7.90;;
69754;SDS011;57023;52.218;5.158;2023-06-24T10:49:51;11.30;;;7.70;;
69754;SDS011;57023;52.218;5.158;2023-06-24T10:52:18;8.60;;;7.10;;
69754;SDS011;57023;52.218;5.158;2023-06-24T10:54:44;10.98;;;8.07;;
69754;SDS011;57023;52.218;5.158;2023-06-24T10:57:10;9.40;;;6.70;;
69754;SDS011;57023;52.218;5.158;2023-06-24T10:59:40;9.07;;;6.35;;
69754;SDS011;57023;52.218;5.158;2023-06-24T11:02:07;7.82;;;6.43;;
69754;SDS011;57023;52.218;5.158;2023-06-24T11:04:33;8.30;;;5.78;;
69754;SDS011;57023;52.218;5.158;2023-06-24T11:06:59;7.33;;;5.10;;
69754;SDS011;57023;52.218;5.158;2023-06-24T11:09:25;7.07;;;5.15;;
69754;SDS011;57023;52.218;5.158;2023-06-24T11:11:50;8.23;;;5.93;;
69754;SDS011;57023;52.218;5.158;2023-06-24T11:14:16;9.73;;;6.47;;
69754;SDS011;57023;52.218;5.158;2023-06-24T11:16:41;9.23;;;5.80;;
69754;SDS011;57023;52.218;5.158;2023-06-24T11:19:07;8.70;;;5.55;;
69754;SDS011;57023;52.218;5.158;2023-06-24T11:21:32;7.77;;;5.30;;
69754;SDS011;57023;52.218;5.158;2023-06-24T11:24:01;7.07;;;5.63;;
69754;SDS011;57023;52.218;5.158;2023-06-24T11:26:27;8.05;;;4.70;;
69754;SDS011;57023;52.218;5.158;2023-06-24T11:28:53;9.80;;;6.90;;
69754;SDS011;57023;52.218;5.158;2023-06-24T11:31:18;8.03;;;5.63;;
69754;SDS011;57023;52.218;5.158;2023-06-24T11:33:48;8.33;;;4.87;;
69754;SDS011;57023;52.218;5.158;2023-06-24T11:36:16;9.60;;;5.72;;
69754;SDS011;57023;52.218;5.158;2023-06-24T11:38:42;6.72;;;5.32;;
69754;SDS011;57023;52.218;5.158;2023-06-24T11:41:08;8.77;;;6.23;;
69754;SDS011;57023;52.218;5.158;2023-06-24T11:43:33;7.57;;;5.70;;
69754;SDS011;57023;52.218;5.158;2023-06-24T11:45:59;7.25;;;5.10;;
69754;SDS011;57023;52.218;5.158;2023-06-24T11:48:30;6.90;;;5.33;;
69754;SDS011;57023;52.218;5.158;2023-06-24T11:51:04;9.55;;;6.57;;
69754;SDS011;57023;52.218;5.158;2023-06-24T11:53:41;7.03;;;4.93;;
69754;SDS011;57023;52.218;5.158;2023-06-24T11:56:10;8.93;;;5.97;;
69754;SDS011;57023;52.218;5.158;2023-06-24T12:01:01;7.93;;;5.77;;
69754;SDS011;57023;52.218;5.158;2023-06-24T12:05:53;9.50;;;6.65;;
69754;SDS011;57023;52.218;5.158;2023-06-24T12:08:18;10.27;;;6.88;;
69754;SDS011;57023;52.218;5.158;2023-06-24T12:10:43;8.23;;;6.13;;
69754;SDS011;57023;52.218;5.158;2023-06-24T12:13:09;8.85;;;7.40;;
69754;SDS011;57023;52.218;5.158;2023-06-24T12:15:34;8.85;;;5.82;;
69754;SDS011;57023;52.218;5.158;2023-06-24T12:18:00;10.05;;;6.60;;
69754;SDS011;57023;52.218;5.158;2023-06-24T12:20:30;8.20;;;6.05;;
69754;SDS011;57023;52.218;5.158;2023-06-24T12:22:57;7.55;;;5.90;;
69754;SDS011;57023;52.218;5.158;2023-06-24T12:27:48;9.07;;;6.30;;
69754;SDS011;57023;52.218;5.158;2023-06-24T12:30:14;10.13;;;5.88;;
69754;SDS011;57023;52.218;5.158;2023-06-24T12:32:41;9.18;;;6.00;;
69754;SDS011;57023;52.218;5.158;2023-06-24T12:35:06;8.55;;;6.15;;
69754;SDS011;57023;52.218;5.158;2023-06-24T12:37:35;7.65;;;6.07;;
69754;SDS011;57023;52.218;5.158;2023-06-24T12:40:01;7.47;;;5.70;;
69754;SDS011;57023;52.218;5.158;2023-06-24T12:42:27;9.20;;;6.40;;
69754;SDS011;57023;52.218;5.158;2023-06-24T12:44:53;7.35;;;5.95;;
69754;SDS011;57023;52.218;5.158;2023-06-24T12:47:19;6.93;;;4.82;;
69754;SDS011;57023;52.218;5.158;2023-06-24T12:49:44;7.68;;;5.85;;
69754;SDS011;57023;52.218;5.158;2023-06-24T12:52:10;7.90;;;5.57;;
69754;SDS011;57023;52.218;5.158;2023-06-24T12:54:36;8.13;;;6.15;;
69754;SDS011;57023;52.218;5.158;2023-06-24T12:57:02;7.55;;;6.22;;
69754;SDS011;57023;52.218;5.158;2023-06-24T12:59:27;7.45;;;5.70;;
69754;SDS011;57023;52.218;5.158;2023-06-24T13:01:52;7.67;;;5.90;;
69754;SDS011;57023;52.218;5.158;2023-06-24T13:04:18;8.52;;;5.65;;
69754;SDS011;57023;52.218;5.158;2023-06-24T13:06:45;8.50;;;5.72;;
69754;SDS011;57023;52.218;5.158;2023-06-24T13:09:10;7.63;;;5.85;;
69754;SDS011;57023;52.218;5.158;2023-06-24T13:11:36;7.78;;;6.00;;
69754;SDS011;57023;52.218;5.158;2023-06-24T13:14:02;7.13;;;5.80;;
69754;SDS011;57023;52.218;5.158;2023-06-24T13:16:27;8.88;;;6.60;;
69754;SDS011;57023;52.218;5.158;2023-06-24T13:18:53;8.18;;;5.80;;
69754;SDS011;57023;52.218;5.158;2023-06-24T13:21:18;7.97;;;6.47;;
69754;SDS011;57023;52.218;5.158;2023-06-24T13:23:44;7.88;;;6.00;;
69754;SDS011;57023;52.218;5.158;2023-06-24T13:26:11;10.60;;;6.40;;
69754;SDS011;57023;52.218;5.158;2023-06-24T13:28:36;7.32;;;5.65;;
69754;SDS011;57023;52.218;5.158;2023-06-24T13:31:02;7.75;;;5.78;;
69754;SDS011;57023;52.218;5.158;2023-06-24T13:33:27;7.17;;;5.50;;
69754;SDS011;57023;52.218;5.158;2023-06-24T13:35:52;7.97;;;6.50;;
69754;SDS011;57023;52.218;5.158;2023-06-24T13:38:18;6.95;;;6.10;;
69754;SDS011;57023;52.218;5.158;2023-06-24T13:40:44;8.68;;;5.78;;
69754;SDS011;57023;52.218;5.158;2023-06-24T13:43:09;7.57;;;6.28;;
69754;SDS011;57023;52.218;5.158;2023-06-24T13:45:34;7.68;;;5.70;;
69754;SDS011;57023;52.218;5.158;2023-06-24T13:48:00;7.93;;;5.47;;
69754;SDS011;57023;52.218;5.158;2023-06-24T13:50:25;8.70;;;6.03;;
69754;SDS011;57023;52.218;5.158;2023-06-24T13:52:50;8.57;;;6.50;;
69754;SDS011;57023;52.218;5.158;2023-06-24T13:55:16;8.17;;;5.77;;
69754;SDS011;57023;52.218;5.158;2023-06-24T13:57:41;7.70;;;5.85;;
69754;SDS011;57023;52.218;5.158;2023-06-24T14:00:07;8.10;;;6.00;;
69754;SDS011;57023;52.218;5.158;2023-06-24T14:02:34;9.02;;;6.10;;
69754;SDS011;57023;52.218;5.158;2023-06-24T14:04:59;7.35;;;5.55;;
69754;SDS011;57023;52.218;5.158;2023-06-24T14:07:24;7.40;;;5.00;;
69754;SDS011;57023;52.218;5.158;2023-06-24T14:09:50;7.70;;;6.25;;
69754;SDS011;57023;52.218;5.158;2023-06-24T14:12:15;9.75;;;5.65;;
69754;SDS011;57023;52.218;5.158;2023-06-24T14:14:40;8.57;;;5.20;;
69754;SDS011;57023;52.218;5.158;2023-06-24T14:17:06;7.80;;;5.43;;
69754;SDS011;57023;52.218;5.158;2023-06-24T14:19:34;9.50;;;5.88;;
69754;SDS011;57023;52.218;5.158;2023-06-24T14:22:00;6.82;;;5.15;;
69754;SDS011;57023;52.218;5.158;2023-06-24T14:24:26;7.47;;;5.70;;
69754;SDS011;57023;52.218;5.158;2023-06-24T14:26:51;6.70;;;6.00;;
69754;SDS011;57023;52.218;5.158;2023-06-24T14:29:16;6.67;;;5.97;;
69754;SDS011;57023;52.218;5.158;2023-06-24T14:31:42;6.78;;;5.90;;
69754;SDS011;57023;52.218;5.158;2023-06-24T14:34:07;7.00;;;6.07;;
69754;SDS011;57023;52.218;5.158;2023-06-24T14:36:33;7.10;;;6.00;;
69754;SDS011;57023;52.218;5.158;2023-06-24T14:38:58;8.23;;;6.40;;
69754;SDS011;57023;52.218;5.158;2023-06-24T14:41:24;7.90;;;6.03;;
69754;SDS011;57023;52.218;5.158;2023-06-24T14:43:49;8.00;;;6.07;;
69754;SDS011;57023;52.218;5.158;2023-06-24T14:46:15;7.45;;;5.82;;
69754;SDS011;57023;52.218;5.158;2023-06-24T14:48:40;8.00;;;6.22;;
69754;SDS011;57023;52.218;5.158;2023-06-24T14:51:05;8.52;;;5.57;;
69754;SDS011;57023;52.218;5.158;2023-06-24T14:53:31;10.63;;;6.15;;
69754;SDS011;57023;52.218;5.158;2023-06-24T14:55:56;9.90;;;6.47;;
69754;SDS011;57023;52.218;5.158;2023-06-24T14:58:21;10.03;;;6.30;;
69754;SDS011;57023;52.218;5.158;2023-06-24T15:00:47;8.40;;;6.30;;
69754;SDS011;57023;52.218;5.158;2023-06-24T15:03:12;10.37;;;6.97;;
69754;SDS011;57023;52.218;5.158;2023-06-24T15:05:38;9.18;;;7.20;;
69754;SDS011;57023;52.218;5.158;2023-06-24T15:08:04;9.20;;;6.57;;
69754;SDS011;57023;52.218;5.158;2023-06-24T15:10:29;8.75;;;6.63;;
69754;SDS011;57023;52.218;5.158;2023-06-24T15:12:55;8.27;;;6.22;;
69754;SDS011;57023;52.218;5.158;2023-06-24T15:15:20;8.03;;;6.83;;
69754;SDS011;57023;52.218;5.158;2023-06-24T15:17:45;8.00;;;5.70;;
69754;SDS011;57023;52.218;5.158;2023-06-24T15:20:11;8.00;;;5.77;;